Time;durP1;ratioP1;P1;durP2;ratioP2;P2;SDS_P1;SDS_P2;PMS_P1;PMS_P2;Temp;Humidity;BMP_temperature;BMP_pressure;BME280_temperature;BME280_humidity;BME280_pressure;Samples;Min_cycle;Max_cycle;Signal;HPM_P1;HPM_P2
2022/04/22 00:01:12;;;;;;;42.15;27.60;;;;;;;;;;5031497;28;20034;-74
2022/04/22 00:03:38;;;;;;;43.40;29.02;;;;;;;;;;5031060;28;20041;-73
2022/04/22 00:06:04;;;;;;;45.55;29.20;;;;;;;;;;5030075;28;20021;-73
2022/04/22 00:08:30;;;;;;;45.25;30.38;;;;;;;;;;5030517;28;20033;-73
2022/04/22 00:13:43;;;;;;;43.70;28.85;;;;;;;;;;5031591;28;20036;-73
2022/04/22 00:16:09;;;;;;;45.30;30.27;;;;;;;;;;5031470;28;20033;-72
2022/04/22 00:18:35;;;;;;;42.17;29.08;;;;;;;;;;5030290;28;20120;-71
2022/04/22 00:21:01;;;;;;;49.85;30.15;;;;;;;;;;5031281;28;20037;-71
2022/04/22 00:23:27;;;;;;;44.38;29.50;;;;;;;;;;5031257;28;20079;-71
2022/04/22 00:25:54;;;;;;;50.20;30.25;;;;;;;;;;5030212;28;20024;-71
2022/04/22 00:28:20;;;;;;;45.42;30.90;;;;;;;;;;5030752;28;20030;-71
2022/04/22 00:30:47;;;;;;;44.63;30.38;;;;;;;;;;5029962;28;20073;-70
2022/04/22 00:33:13;;;;;;;50.47;30.88;;;;;;;;;;5030917;28;20052;-70
2022/04/22 00:35:39;;;;;;;43.05;27.80;;;;;;;;;;5031475;28;20124;-71
2022/04/22 00:38:05;;;;;;;44.58;30.33;;;;;;;;;;5030515;28;20057;-72
2022/04/22 00:40:31;;;;;;;46.15;30.67;;;;;;;;;;5031074;28;20034;-72
2022/04/22 00:42:57;;;;;;;41.80;28.38;;;;;;;;;;5070334;22;20056;-69
2022/04/22 00:45:23;;;;;;;42.63;29.98;;;;;;;;;;5051196;28;20025;-69
2022/04/22 00:47:49;;;;;;;44.08;29.88;;;;;;;;;;5050521;28;20059;-68
2022/04/22 00:50:15;;;;;;;41.45;29.25;;;;;;;;;;5051585;28;20035;-69
2022/04/22 00:52:41;;;;;;;46.83;30.05;;;;;;;;;;5051320;28;20025;-69
2022/04/22 00:55:08;;;;;;;44.13;30.33;;;;;;;;;;5049930;28;20053;-68
2022/04/22 00:57:34;;;;;;;43.10;29.92;;;;;;;;;;5050499;28;20032;-69
2022/04/22 01:00:00;;;;;;;47.85;31.58;;;;;;;;;;5049766;28;20566;-68
2022/04/22 01:02:26;;;;;;;51.65;32.22;;;;;;;;;;5047079;28;20499;-69
2022/04/22 01:10:22;;;;;;;45.25;29.73;;;;;;;;;;5034559;28;20036;-70
2022/04/22 01:12:48;;;;;;;48.30;32.38;;;;;;;;;;5034234;28;20053;-70
2022/04/22 01:15:13;;;;;;;44.50;30.80;;;;;;;;;;5034570;28;20130;-70
2022/04/22 01:17:40;;;;;;;48.42;31.77;;;;;;;;;;5033428;28;20033;-70
2022/04/22 01:20:06;;;;;;;47.25;31.90;;;;;;;;;;5034427;28;20053;-70
2022/04/22 01:22:32;;;;;;;46.50;32.03;;;;;;;;;;5034122;28;20123;-69
2022/04/22 01:24:59;;;;;;;50.10;31.70;;;;;;;;;;5034450;28;20486;-71
2022/04/22 01:27:26;;;;;;;47.88;30.98;;;;;;;;;;5033250;28;20498;-70
2022/04/22 01:29:52;;;;;;;50.13;32.38;;;;;;;;;;5034387;28;20029;-70
2022/04/22 01:32:18;;;;;;;54.75;35.30;;;;;;;;;;5033962;28;20056;-70
2022/04/22 01:34:44;;;;;;;50.50;32.42;;;;;;;;;;5034148;28;20053;-69
2022/04/22 01:37:11;;;;;;;53.33;34.05;;;;;;;;;;5032135;28;20064;-70
2022/04/22 01:39:37;;;;;;;53.67;34.10;;;;;;;;;;5032658;28;20537;-70
2022/04/22 01:42:03;;;;;;;54.47;34.08;;;;;;;;;;5033640;28;20057;-70
2022/04/22 01:44:29;;;;;;;50.58;33.17;;;;;;;;;;5033956;28;20513;-71
2022/04/22 01:46:55;;;;;;;56.08;37.42;;;;;;;;;;5033917;28;20025;-71
2022/04/22 01:49:21;;;;;;;55.28;36.45;;;;;;;;;;5033052;28;20479;-71
2022/04/22 01:51:47;;;;;;;54.85;34.03;;;;;;;;;;5034252;28;20029;-70
2022/04/22 01:54:13;;;;;;;55.47;35.75;;;;;;;;;;5033749;28;20021;-72
2022/04/22 01:56:39;;;;;;;57.17;36.20;;;;;;;;;;5033605;28;20402;-70
2022/04/22 01:59:05;;;;;;;53.75;34.05;;;;;;;;;;5033052;28;20025;-71
2022/04/22 02:01:31;;;;;;;57.13;35.75;;;;;;;;;;5032184;28;20025;-71
2022/04/22 02:03:57;;;;;;;60.65;36.08;;;;;;;;;;5033794;28;20075;-71
2022/04/22 02:06:23;;;;;;;58.70;36.78;;;;;;;;;;5033678;28;20026;-71
2022/04/22 02:08:49;;;;;;;62.13;35.13;;;;;;;;;;5032900;28;20101;-71
2022/04/22 02:11:16;;;;;;;57.50;36.55;;;;;;;;;;5033333;28;20017;-71
2022/04/22 02:13:42;;;;;;;59.63;37.50;;;;;;;;;;5032164;28;20372;-71
2022/04/22 02:16:08;;;;;;;61.33;36.45;;;;;;;;;;5032084;28;20032;-71
2022/04/22 02:18:36;;;;;;;61.22;36.40;;;;;;;;;;5031828;28;20033;-70
2022/04/22 02:21:04;;;;;;;60.42;36.90;;;;;;;;;;5033600;28;20105;-71
2022/04/22 02:23:30;;;;;;;59.65;37.03;;;;;;;;;;5033628;28;20056;-72
2022/04/22 02:25:55;;;;;;;62.05;38.35;;;;;;;;;;5033835;28;20544;-71
2022/04/22 02:28:34;;;;;;;61.15;38.30;;;;;;;;;;5033279;28;20391;-70
2022/04/22 02:31:10;;;;;;;61.42;37.75;;;;;;;;;;5032653;28;20450;-70
2022/04/22 02:33:37;;;;;;;62.17;39.42;;;;;;;;;;5032096;28;20491;-70
2022/04/22 02:36:03;;;;;;;58.75;36.88;;;;;;;;;;5032967;28;20053;-70
2022/04/22 02:38:30;;;;;;;62.88;39.65;;;;;;;;;;5032263;28;20049;-70
2022/04/22 02:46:26;;;;;;;61.75;37.67;;;;;;;;;;5032968;28;20047;-70
2022/04/22 02:48:52;;;;;;;62.00;38.03;;;;;;;;;;5031834;28;20026;-71
2022/04/22 02:51:18;;;;;;;63.20;38.30;;;;;;;;;;5032777;28;20406;-71
2022/04/22 02:53:44;;;;;;;57.58;37.05;;;;;;;;;;5032710;28;20029;-70
2022/04/22 02:56:11;;;;;;;59.67;36.90;;;;;;;;;;5032926;28;20018;-71
2022/04/22 02:58:37;;;;;;;59.72;37.92;;;;;;;;;;5031639;28;20033;-70
2022/04/22 03:01:03;;;;;;;58.45;36.15;;;;;;;;;;5032341;28;20498;-71
2022/04/22 03:03:30;;;;;;;64.60;36.80;;;;;;;;;;5031943;28;20117;-71
2022/04/22 03:05:56;;;;;;;60.30;36.90;;;;;;;;;;5032560;28;20083;-71
2022/04/22 03:08:22;;;;;;;61.78;38.38;;;;;;;;;;5031718;28;20047;-71
2022/04/22 03:10:48;;;;;;;56.88;37.63;;;;;;;;;;5032426;28;20391;-70
2022/04/22 03:13:15;;;;;;;62.60;38.22;;;;;;;;;;5030920;28;20025;-70
2022/04/22 03:15:41;;;;;;;60.50;36.95;;;;;;;;;;5032059;28;20099;-70
2022/04/22 03:18:07;;;;;;;62.90;38.58;;;;;;;;;;5031598;28;20512;-69
2022/04/22 03:20:33;;;;;;;66.07;38.28;;;;;;;;;;5032081;28;20033;-71
2022/04/22 03:22:59;;;;;;;66.63;38.75;;;;;;;;;;5031923;28;20113;-70
2022/04/22 03:25:25;;;;;;;68.63;39.78;;;;;;;;;;5031873;28;20053;-71
2022/04/22 03:27:51;;;;;;;67.70;40.17;;;;;;;;;;5031346;28;20091;-69
2022/04/22 03:30:17;;;;;;;62.92;37.67;;;;;;;;;;5031583;28;20522;-69
2022/04/22 03:32:44;;;;;;;71.50;39.92;;;;;;;;;;5031830;28;20021;-69
2022/04/22 03:35:10;;;;;;;67.78;39.13;;;;;;;;;;5031845;28;20031;-68
2022/04/22 03:37:36;;;;;;;70.68;41.17;;;;;;;;;;5031101;28;20454;-69
2022/04/22 03:40:03;;;;;;;67.70;39.08;;;;;;;;;;5031883;28;20064;-70
2022/04/22 03:42:29;;;;;;;72.75;39.85;;;;;;;;;;5031447;28;20083;-70
2022/04/22 03:44:56;;;;;;;77.88;44.15;;;;;;;;;;5031741;28;20383;-70
2022/04/22 03:47:23;;;;;;;80.97;43.08;;;;;;;;;;5031001;28;20013;-70
2022/04/22 03:49:49;;;;;;;81.95;44.13;;;;;;;;;;5030505;28;20040;-70
2022/04/22 03:52:15;;;;;;;73.53;40.67;;;;;;;;;;5030262;28;20025;-70
2022/04/22 03:54:41;;;;;;;78.90;41.63;;;;;;;;;;5030390;28;20172;-70
2022/04/22 03:59:54;;;;;;;80.85;41.58;;;;;;;;;;5031678;28;20040;-70
2022/04/22 04:02:20;;;;;;;85.55;45.38;;;;;;;;;;5031185;28;20116;-70
2022/04/22 04:04:49;;;;;;;81.05;43.25;;;;;;;;;;5031571;28;20121;-69
2022/04/22 04:07:15;;;;;;;81.05;41.83;;;;;;;;;;5030717;28;20018;-70
2022/04/22 04:17:54;;;;;;;87.55;43.42;;;;;;;;;;5030891;28;20079;-70
2022/04/22 04:23:14;;;;;;;99.15;46.78;;;;;;;;;;5031487;28;20383;-70
2022/04/22 04:25:40;;;;;;;88.93;44.10;;;;;;;;;;5030207;28;20398;-71
2022/04/22 04:28:09;;;;;;;93.88;45.72;;;;;;;;;;5030679;28;20048;-71
2022/04/22 04:30:36;;;;;;;88.68;43.92;;;;;;;;;;5032392;28;20108;-71
2022/04/22 04:33:02;;;;;;;91.50;45.28;;;;;;;;;;5030920;28;20502;-70
2022/04/22 04:35:28;;;;;;;94.30;46.28;;;;;;;;;;5031192;28;20033;-69
2022/04/22 04:37:54;;;;;;;97.65;46.33;;;;;;;;;;5030664;28;20491;-69
2022/04/22 04:40:20;;;;;;;87.60;44.65;;;;;;;;;;5031308;28;20407;-69
2022/04/22 04:42:46;;;;;;;62.42;36.50;;;;;;;;;;5034030;28;20037;-69
2022/04/22 04:45:12;;;;;;;59.13;36.38;;;;;;;;;;5035388;28;20410;-69
2022/04/22 04:47:40;;;;;;;51.58;33.05;;;;;;;;;;5033581;28;20718;-70
2022/04/22 04:50:06;;;;;;;39.75;27.58;;;;;;;;;;5034883;28;20120;-69
2022/04/22 04:52:33;;;;;;;43.92;28.00;;;;;;;;;;5033119;28;20041;-69
2022/04/22 04:54:59;;;;;;;38.78;26.95;;;;;;;;;;5034578;28;20025;-70
2022/04/22 04:57:25;;;;;;;38.00;25.95;;;;;;;;;;5033862;28;20072;-70
2022/04/22 04:59:51;;;;;;;37.90;26.90;;;;;;;;;;5034520;28;20398;-68
2022/04/22 05:02:17;;;;;;;37.08;26.40;;;;;;;;;;5034129;28;20033;-69
2022/04/22 05:04:43;;;;;;;33.67;25.10;;;;;;;;;;5034606;28;20057;-70
2022/04/22 05:07:09;;;;;;;32.72;24.15;;;;;;;;;;5032260;28;20022;-69
2022/04/22 05:09:35;;;;;;;32.22;23.92;;;;;;;;;;5034249;28;20076;-69
2022/04/22 05:12:01;;;;;;;29.17;22.13;;;;;;;;;;5034458;28;20025;-70
2022/04/22 05:14:27;;;;;;;32.85;22.88;;;;;;;;;;5034021;28;20372;-70
2022/04/22 05:16:56;;;;;;;31.40;22.88;;;;;;;;;;5032912;28;20021;-68
2022/04/22 05:19:22;;;;;;;29.38;22.60;;;;;;;;;;5033515;28;20021;-70
2022/04/22 05:21:49;;;;;;;31.13;22.85;;;;;;;;;;5034008;28;20526;-70
2022/04/22 05:24:15;;;;;;;33.45;24.98;;;;;;;;;;5032883;28;20102;-69
2022/04/22 05:26:41;;;;;;;31.45;24.08;;;;;;;;;;5033938;28;20033;-69
2022/04/22 05:32:36;;;;;;;35.13;26.73;;;;;;;;;;5032113;28;20030;-71
2022/04/22 05:34:40;;;;;;;39.70;27.63;;;;;;;;;;5036410;28;20060;-69
2022/04/22 05:37:06;;;;;;;42.95;28.65;;;;;;;;;;5033179;28;20056;-68
2022/04/22 05:39:32;;;;;;;42.67;29.35;;;;;;;;;;5032216;28;20471;-70
2022/04/22 05:42:00;;;;;;;39.88;26.30;;;;;;;;;;5032309;28;20083;-70
2022/04/22 05:44:26;;;;;;;36.67;26.25;;;;;;;;;;5033493;28;20476;-70
2022/04/22 05:46:52;;;;;;;35.90;24.40;;;;;;;;;;5033532;28;20030;-70
2022/04/22 05:49:18;;;;;;;40.33;25.63;;;;;;;;;;5032752;28;20039;-70
2022/04/22 05:51:44;;;;;;;37.35;24.90;;;;;;;;;;5032201;28;20014;-69
2022/04/22 05:54:10;;;;;;;38.15;25.40;;;;;;;;;;5030457;28;20525;-70
2022/04/22 05:56:36;;;;;;;35.92;25.42;;;;;;;;;;5034860;28;20048;-71
2022/04/22 05:59:03;;;;;;;32.97;22.02;;;;;;;;;;5036884;28;20076;-70
2022/04/22 06:01:29;;;;;;;43.17;26.15;;;;;;;;;;5038490;28;20045;-72
2022/04/22 06:03:55;;;;;;;39.15;25.60;;;;;;;;;;5033151;28;20111;-72
2022/04/22 06:06:21;;;;;;;41.97;27.40;;;;;;;;;;5045312;28;20017;-69
2022/04/22 06:11:32;;;;;;;39.03;25.85;;;;;;;;;;5053541;28;20040;-70
2022/04/22 06:13:58;;;;;;;37.90;25.67;;;;;;;;;;5051004;28;20052;-70
2022/04/22 06:16:24;;;;;;;44.92;29.45;;;;;;;;;;5051525;28;20048;-72
2022/04/22 06:18:50;;;;;;;89.65;51.22;;;;;;;;;;5051009;28;20495;-71
2022/04/22 06:21:16;;;;;;;58.60;35.45;;;;;;;;;;5050088;28;20153;-70
2022/04/22 06:23:42;;;;;;;58.83;35.30;;;;;;;;;;5051757;28;20112;-69
2022/04/22 06:26:08;;;;;;;56.05;34.63;;;;;;;;;;5051636;28;20017;-70
2022/04/22 06:28:34;;;;;;;68.22;37.95;;;;;;;;;;5049919;28;20159;-70
2022/04/22 06:31:01;;;;;;;38.78;26.95;;;;;;;;;;5047969;28;20013;-70
2022/04/22 06:33:27;;;;;;;39.08;25.15;;;;;;;;;;5051577;28;20060;-72
2022/04/22 06:35:53;;;;;;;38.22;25.95;;;;;;;;;;5051387;28;20051;-71
2022/04/22 06:38:19;;;;;;;39.75;25.88;;;;;;;;;;5052465;28;20032;-72
2022/04/22 06:46:18;;;;;;;44.63;28.02;;;;;;;;;;5027758;28;20467;-77
2022/04/22 06:48:44;;;;;;;41.08;25.13;;;;;;;;;;5032972;28;20028;-72
2022/04/22 06:51:11;;;;;;;43.78;29.20;;;;;;;;;;5033761;28;20025;-74
2022/04/22 06:53:37;;;;;;;44.72;28.55;;;;;;;;;;5026485;28;20033;-75
2022/04/22 06:56:06;;;;;;;38.13;26.40;;;;;;;;;;5014523;28;20044;-75
2022/04/22 06:58:33;;;;;;;47.00;32.53;;;;;;;;;;5001409;28;20033;-77
2022/04/22 07:00:59;;;;;;;42.05;27.88;;;;;;;;;;5000219;28;20076;-79
2022/04/22 07:03:26;;;;;;;58.80;36.92;;;;;;;;;;5000463;28;20022;-78
2022/04/22 07:05:52;;;;;;;48.58;31.45;;;;;;;;;;5010497;28;20038;-76
2022/04/22 07:08:20;;;;;;;38.85;26.73;;;;;;;;;;5022001;28;20120;-75
2022/04/22 07:10:46;;;;;;;34.45;25.25;;;;;;;;;;5001517;28;20432;-76
2022/04/22 07:13:12;;;;;;;38.35;26.95;;;;;;;;;;5014674;28;20113;-76
2022/04/22 07:15:39;;;;;;;35.67;26.30;;;;;;;;;;4998619;28;20045;-76
2022/04/22 07:18:05;;;;;;;76.68;46.13;;;;;;;;;;5000066;28;20032;-78
2022/04/22 07:20:32;;;;;;;39.78;27.50;;;;;;;;;;5021015;28;20029;-76
2022/04/22 07:22:59;;;;;;;39.90;28.38;;;;;;;;;;5019572;28;20036;-74
2022/04/22 07:25:25;;;;;;;80.13;50.53;;;;;;;;;;5016612;28;20025;-76
2022/04/22 07:27:51;;;;;;;66.85;42.40;;;;;;;;;;4996170;28;20025;-76
2022/04/22 07:30:19;;;;;;;48.83;32.75;;;;;;;;;;5016176;28;20077;-79
2022/04/22 07:32:49;;;;;;;37.83;27.48;;;;;;;;;;5014203;28;20025;-73
2022/04/22 07:35:18;;;;;;;33.80;26.00;;;;;;;;;;4998333;28;20044;-75
2022/04/22 07:37:46;;;;;;;33.70;25.85;;;;;;;;;;5013107;28;20306;-76
2022/04/22 07:40:12;;;;;;;37.05;28.75;;;;;;;;;;5013569;28;20024;-75
2022/04/22 07:42:41;;;;;;;36.60;27.08;;;;;;;;;;5014043;28;20065;-76
2022/04/22 07:47:52;;;;;;;81.43;50.60;;;;;;;;;;5012346;28;20416;-74
2022/04/22 07:50:19;;;;;;;32.35;25.10;;;;;;;;;;5019213;28;20099;-75
2022/04/22 07:52:45;;;;;;;30.10;24.40;;;;;;;;;;5021804;28;20100;-77
2022/04/22 07:55:15;;;;;;;32.97;26.52;;;;;;;;;;5024540;28;20083;-80
2022/04/22 07:57:42;;;;;;;33.85;26.77;;;;;;;;;;5014168;28;20033;-75
2022/04/22 08:00:34;;;;;;;36.28;28.10;;;;;;;;;;5026936;28;20088;-77
2022/04/22 08:03:00;;;;;;;33.45;25.33;;;;;;;;;;5003080;28;20145;-73
2022/04/22 08:05:26;;;;;;;33.03;25.63;;;;;;;;;;5021162;28;20101;-73
2022/04/22 08:07:53;;;;;;;31.35;24.60;;;;;;;;;;5013849;28;20494;-73
2022/04/22 08:10:18;;;;;;;39.67;25.20;;;;;;;;;;5026078;28;20025;-76
2022/04/22 08:12:44;;;;;;;39.78;27.48;;;;;;;;;;5020454;28;20446;-75
2022/04/22 08:15:11;;;;;;;30.25;25.13;;;;;;;;;;5018249;28;20100;-76
2022/04/22 08:17:38;;;;;;;29.58;24.27;;;;;;;;;;5029194;28;20033;-76
2022/04/22 08:20:05;;;;;;;29.02;24.40;;;;;;;;;;5019058;28;20430;-76
2022/04/22 08:22:32;;;;;;;30.52;25.70;;;;;;;;;;5024411;28;20084;-78
2022/04/22 08:24:58;;;;;;;30.40;25.55;;;;;;;;;;5030150;28;20108;-76
2022/04/22 08:27:28;;;;;;;31.27;24.50;;;;;;;;;;5008674;28;20105;-76
2022/04/22 08:29:54;;;;;;;29.83;24.30;;;;;;;;;;5029219;28;20021;-77
2022/04/22 08:32:20;;;;;;;25.80;21.67;;;;;;;;;;5029896;28;20310;-78
2022/04/22 08:34:46;;;;;;;28.13;23.55;;;;;;;;;;5030164;28;20028;-77
2022/04/22 08:37:12;;;;;;;32.53;23.27;;;;;;;;;;5003417;28;20033;-76
2022/04/22 08:39:39;;;;;;;32.83;24.30;;;;;;;;;;5031312;28;20025;-76
2022/04/22 08:42:05;;;;;;;28.77;22.70;;;;;;;;;;5000926;28;20022;-76
2022/04/22 08:44:31;;;;;;;27.13;21.67;;;;;;;;;;5022491;28;20031;-77
2022/04/22 08:52:29;;;;;;;28.75;21.38;;;;;;;;;;5018972;28;20403;-74
2022/04/22 08:54:55;;;;;;;26.23;21.77;;;;;;;;;;5021414;28;20030;-75
2022/04/22 08:57:22;;;;;;;30.65;24.80;;;;;;;;;;5027676;28;20029;-77
2022/04/22 08:59:48;;;;;;;41.65;31.08;;;;;;;;;;5032843;28;20022;-77
2022/04/22 09:02:20;;;;;;;150.88;103.35;;;;;;;;;;4998764;28;20033;-74
2022/04/22 09:04:47;;;;;;;74.22;50.08;;;;;;;;;;5013778;28;20025;-74
2022/04/22 09:07:14;;;;;;;36.20;28.30;;;;;;;;;;5022652;28;20502;-76
2022/04/22 09:09:40;;;;;;;29.60;22.98;;;;;;;;;;5018444;28;20030;-76
2022/04/22 09:12:11;;;;;;;27.98;23.30;;;;;;;;;;5030186;28;20033;-74
2022/04/22 09:14:44;;;;;;;34.67;26.77;;;;;;;;;;5022538;28;20024;-76
2022/04/22 09:17:10;;;;;;;35.40;26.50;;;;;;;;;;5031237;28;20024;-76
2022/04/22 09:19:36;;;;;;;74.32;48.90;;;;;;;;;;5018821;28;20053;-76
2022/04/22 09:22:02;;;;;;;29.50;23.70;;;;;;;;;;5026973;28;20025;-76
2022/04/22 09:24:28;;;;;;;30.45;23.60;;;;;;;;;;5021547;28;20049;-75
2022/04/22 09:27:08;;;;;;;32.92;24.58;;;;;;;;;;5031576;28;20021;-75
2022/04/22 09:29:54;;;;;;;37.67;25.27;;;;;;;;;;5003497;28;20518;-76
2022/04/22 09:32:24;;;;;;;33.47;24.85;;;;;;;;;;5008329;28;20017;-75
2022/04/22 09:34:50;;;;;;;29.40;22.85;;;;;;;;;;5024901;28;20097;-76
2022/04/22 09:42:51;;;;;;;27.08;21.63;;;;;;;;;;5023400;28;20411;-76
2022/04/22 09:45:17;;;;;;;43.58;30.38;;;;;;;;;;5020077;28;20032;-76
2022/04/22 09:47:43;;;;;;;27.98;21.25;;;;;;;;;;5029879;28;20051;-76
2022/04/22 09:50:16;;;;;;;28.45;21.77;;;;;;;;;;5018355;28;20022;-78
2022/04/22 09:52:46;;;;;;;36.00;25.63;;;;;;;;;;5025277;28;20053;-77
2022/04/22 09:55:15;;;;;;;38.37;26.13;;;;;;;;;;5024857;28;20018;-77
2022/04/22 09:57:57;;;;;;;24.90;20.50;;;;;;;;;;5011355;28;20343;-78
2022/04/22 10:00:25;;;;;;;26.80;18.73;;;;;;;;;;5020132;28;20026;-77
2022/04/22 10:02:52;;;;;;;25.02;19.42;;;;;;;;;;5016994;28;20548;-77
2022/04/22 10:05:25;;;;;;;23.55;18.38;;;;;;;;;;5021697;28;20048;-79
2022/04/22 10:07:52;;;;;;;23.67;17.55;;;;;;;;;;5028553;28;20014;-72
2022/04/22 10:10:19;;;;;;;23.38;18.08;;;;;;;;;;5021814;28;20026;-73
2022/04/22 10:12:47;;;;;;;26.02;19.90;;;;;;;;;;5022477;28;20026;-72
2022/04/22 10:15:14;;;;;;;26.85;19.05;;;;;;;;;;5019805;28;20487;-72
2022/04/22 10:17:40;;;;;;;24.42;19.67;;;;;;;;;;5028654;28;20033;-73
2022/04/22 10:20:08;;;;;;;23.95;18.83;;;;;;;;;;5017212;28;20021;-73
2022/04/22 10:22:34;;;;;;;23.50;17.55;;;;;;;;;;5030261;28;20049;-73
2022/04/22 10:25:03;;;;;;;23.45;17.67;;;;;;;;;;5031542;28;20053;-75
2022/04/22 10:27:32;;;;;;;25.45;19.50;;;;;;;;;;5034177;28;20068;-80
2022/04/22 10:29:59;;;;;;;26.08;18.98;;;;;;;;;;5019455;28;20021;-71
2022/04/22 10:32:25;;;;;;;45.13;31.40;;;;;;;;;;5019756;28;20029;-75
2022/04/22 10:34:57;;;;;;;50.10;34.25;;;;;;;;;;5005243;28;20061;-74
2022/04/22 10:37:27;;;;;;;22.95;18.42;;;;;;;;;;5008683;28;20087;-78
2022/04/22 10:39:54;;;;;;;23.75;18.15;;;;;;;;;;5017388;28;20100;-79
2022/04/22 10:42:20;;;;;;;22.23;16.25;;;;;;;;;;5026815;28;20092;-79
2022/04/22 10:47:40;;;;;;;17.48;14.05;;;;;;;;;;5028240;28;20095;-74
2022/04/22 10:50:25;;;;;;;20.02;14.82;;;;;;;;;;5000944;28;20021;-76
2022/04/22 10:53:03;;;;;;;21.67;15.95;;;;;;;;;;5009066;28;20030;-76
2022/04/22 10:55:39;;;;;;;21.98;17.48;;;;;;;;;;5028352;28;20332;-77
2022/04/22 10:58:14;;;;;;;27.25;18.83;;;;;;;;;;4981939;28;20025;-75
2022/04/22 11:00:44;;;;;;;66.40;38.10;;;;;;;;;;5023726;28;20028;-75
2022/04/22 11:03:12;;;;;;;18.70;14.30;;;;;;;;;;5011425;28;20030;-76
2022/04/22 11:05:39;;;;;;;19.08;15.07;;;;;;;;;;5026971;28;20071;-76
2022/04/22 11:08:06;;;;;;;21.85;17.02;;;;;;;;;;5016311;28;20554;-78
2022/04/22 11:10:48;;;;;;;40.42;25.15;;;;;;;;;;5025328;28;20049;-77
2022/04/22 11:13:30;;;;;;;22.65;17.35;;;;;;;;;;5027145;28;20021;-77
2022/04/22 11:16:06;;;;;;;22.33;17.38;;;;;;;;;;5016618;28;20026;-77
2022/04/22 11:18:33;;;;;;;22.65;18.90;;;;;;;;;;5025013;28;20037;-77
2022/04/22 11:21:04;;;;;;;23.98;19.55;;;;;;;;;;5024646;28;20036;-77
2022/04/22 11:23:35;;;;;;;31.48;23.70;;;;;;;;;;5016662;28;20033;-75
2022/04/22 11:26:01;;;;;;;25.33;19.70;;;;;;;;;;5028787;28;20017;-76
2022/04/22 11:28:29;;;;;;;51.97;34.50;;;;;;;;;;5018427;28;20101;-76
2022/04/22 11:30:55;;;;;;;26.35;21.80;;;;;;;;;;5021619;28;20030;-77
2022/04/22 11:33:23;;;;;;;29.05;21.20;;;;;;;;;;5026451;28;20079;-77
2022/04/22 11:35:52;;;;;;;25.58;20.13;;;;;;;;;;5015357;28;20025;-77
2022/04/22 11:38:17;;;;;;;24.92;19.10;;;;;;;;;;5025851;28;20041;-76
2022/04/22 11:40:47;;;;;;;24.85;19.45;;;;;;;;;;5021290;28;20391;-76
2022/04/22 11:43:18;;;;;;;26.92;19.77;;;;;;;;;;5018414;28;20396;-75
2022/04/22 11:45:53;;;;;;;29.10;22.65;;;;;;;;;;5028528;28;20025;-78
2022/04/22 11:48:20;;;;;;;25.38;19.38;;;;;;;;;;5013162;28;20032;-77
2022/04/22 11:50:46;;;;;;;23.00;18.15;;;;;;;;;;5023027;28;20021;-77
2022/04/22 11:53:17;;;;;;;23.95;18.80;;;;;;;;;;5019645;28;20100;-80
2022/04/22 11:55:43;;;;;;;24.15;18.63;;;;;;;;;;5028059;28;20025;-78
2022/04/22 11:58:10;;;;;;;25.27;18.00;;;;;;;;;;4997551;28;20433;-78
2022/04/22 12:06:08;;;;;;;23.13;16.63;;;;;;;;;;5001185;28;20067;-76
2022/04/22 12:08:34;;;;;;;21.48;17.17;;;;;;;;;;5023079;28;20049;-76
2022/04/22 12:11:00;;;;;;;22.20;17.17;;;;;;;;;;4995518;28;20022;-75
2022/04/22 12:13:26;;;;;;;22.42;17.48;;;;;;;;;;5016718;28;20029;-74
2022/04/22 12:15:54;;;;;;;22.00;17.55;;;;;;;;;;5019162;28;20076;-77
2022/04/22 12:18:30;;;;;;;19.33;15.13;;;;;;;;;;5016253;28;20017;-76
2022/04/22 12:20:56;;;;;;;19.10;15.57;;;;;;;;;;5024392;28;20064;-74
2022/04/22 12:23:22;;;;;;;24.10;15.93;;;;;;;;;;5021984;28;20045;-76
2022/04/22 12:25:55;;;;;;;19.85;15.23;;;;;;;;;;5013240;28;20061;-76
2022/04/22 12:28:21;;;;;;;18.45;15.10;;;;;;;;;;5011864;28;20026;-73
2022/04/22 12:30:47;;;;;;;21.65;15.75;;;;;;;;;;5005684;28;20088;-75
2022/04/22 12:33:17;;;;;;;21.25;14.90;;;;;;;;;;5019144;28;20052;-78
2022/04/22 12:35:45;;;;;;;19.25;13.82;;;;;;;;;;5014683;28;20026;-78
2022/04/22 12:38:13;;;;;;;23.23;14.65;;;;;;;;;;5028094;28;20529;-78
2022/04/22 12:40:45;;;;;;;18.38;14.15;;;;;;;;;;5014377;28;20395;-77
2022/04/22 12:43:28;;;;;;;16.27;12.95;;;;;;;;;;5048576;22;20048;-70
2022/04/22 12:52:10;;;;;;;16.85;12.98;;;;;;;;;;5051020;28;20081;-71
2022/04/22 12:54:40;;;;;;;18.33;13.38;;;;;;;;;;5050670;28;20032;-70
2022/04/22 12:57:06;;;;;;;15.70;12.90;;;;;;;;;;5049001;28;20474;-73
2022/04/22 12:59:54;;;;;;;17.67;13.40;;;;;;;;;;5049766;28;20082;-72
2022/04/22 13:02:26;;;;;;;19.50;12.98;;;;;;;;;;5046722;28;20491;-71
2022/04/22 13:04:52;;;;;;;19.63;13.18;;;;;;;;;;5044452;28;20047;-72
2022/04/22 13:07:18;;;;;;;19.63;14.35;;;;;;;;;;5053084;28;20649;-74
2022/04/22 13:09:44;;;;;;;28.38;19.67;;;;;;;;;;5052138;28;20109;-73
2022/04/22 13:12:10;;;;;;;17.17;13.82;;;;;;;;;;5053685;28;20024;-71
2022/04/22 13:14:36;;;;;;;21.70;14.93;;;;;;;;;;5052569;28;20020;-71
2022/04/22 13:17:03;;;;;;;20.90;15.35;;;;;;;;;;5054245;28;20024;-71
2022/04/22 13:19:29;;;;;;;20.92;15.10;;;;;;;;;;5053542;28;20104;-71
2022/04/22 13:21:55;;;;;;;17.73;14.43;;;;;;;;;;5052294;28;20530;-70
2022/04/22 13:24:21;;;;;;;66.30;38.00;;;;;;;;;;5053845;28;20029;-71
2022/04/22 13:26:47;;;;;;;32.25;20.17;;;;;;;;;;5053791;28;20347;-72
2022/04/22 13:29:13;;;;;;;22.58;15.95;;;;;;;;;;5052838;28;20032;-71
2022/04/22 13:31:39;;;;;;;20.98;15.48;;;;;;;;;;5053647;28;20036;-71
2022/04/22 13:34:05;;;;;;;20.50;16.42;;;;;;;;;;5053395;28;20102;-72
2022/04/22 13:36:31;;;;;;;21.95;16.45;;;;;;;;;;5051937;28;20397;-73
2022/04/22 13:38:57;;;;;;;20.88;16.27;;;;;;;;;;5052786;28;20043;-71
2022/04/22 13:41:23;;;;;;;21.10;16.92;;;;;;;;;;5052986;28;20029;-73
2022/04/22 13:43:49;;;;;;;25.20;16.95;;;;;;;;;;5053140;28;20490;-72
2022/04/22 13:54:28;;;;;;;23.30;17.52;;;;;;;;;;5052700;28;20430;-71
2022/04/22 13:56:55;;;;;;;24.55;19.25;;;;;;;;;;5053245;28;20104;-71
2022/04/22 13:59:21;;;;;;;25.73;20.83;;;;;;;;;;5052286;28;20074;-71
2022/04/22 14:01:47;;;;;;;29.58;19.65;;;;;;;;;;5051414;28;20032;-70
2022/04/22 14:04:13;;;;;;;24.95;19.48;;;;;;;;;;5051223;28;20218;-72
2022/04/22 14:06:39;;;;;;;29.05;22.00;;;;;;;;;;5052979;28;20482;-71
2022/04/22 14:09:05;;;;;;;29.00;21.08;;;;;;;;;;5052367;28;20024;-72
2022/04/22 14:11:31;;;;;;;26.63;20.25;;;;;;;;;;5059196;28;20020;-73
2022/04/22 14:13:57;;;;;;;28.77;20.85;;;;;;;;;;5052376;28;20036;-72
2022/04/22 14:16:24;;;;;;;30.00;22.20;;;;;;;;;;5052305;28;20099;-70
2022/04/22 14:18:50;;;;;;;33.88;24.33;;;;;;;;;;5051479;28;20665;-73
2022/04/22 14:21:16;;;;;;;32.50;22.25;;;;;;;;;;5051237;28;20060;-70
2022/04/22 14:23:42;;;;;;;32.45;23.50;;;;;;;;;;5051137;28;20114;-71
2022/04/22 14:26:09;;;;;;;32.17;24.02;;;;;;;;;;5052858;28;20410;-73
2022/04/22 14:28:35;;;;;;;34.40;25.27;;;;;;;;;;5049861;28;20028;-72
2022/04/22 14:31:01;;;;;;;32.85;25.58;;;;;;;;;;5051073;28;20144;-70
2022/04/22 14:33:27;;;;;;;33.70;25.77;;;;;;;;;;5052463;28;20052;-72
2022/04/22 14:35:53;;;;;;;34.03;25.08;;;;;;;;;;5052115;28;20095;-72
2022/04/22 14:38:19;;;;;;;35.60;25.70;;;;;;;;;;5049945;28;20112;-73
2022/04/22 14:40:45;;;;;;;34.22;25.52;;;;;;;;;;5051305;28;20032;-74
2022/04/22 14:43:11;;;;;;;37.35;27.98;;;;;;;;;;5050019;28;20083;-72
2022/04/22 14:45:37;;;;;;;36.63;26.95;;;;;;;;;;5049645;28;20033;-73
2022/04/22 14:48:04;;;;;;;45.92;28.45;;;;;;;;;;5043046;28;20021;-73
2022/04/22 14:50:31;;;;;;;40.17;27.70;;;;;;;;;;5051536;28;20477;-74
2022/04/22 14:52:57;;;;;;;37.03;28.70;;;;;;;;;;5050279;28;20080;-72
2022/04/22 14:55:23;;;;;;;40.90;28.80;;;;;;;;;;5051788;28;20036;-73
2022/04/22 14:57:50;;;;;;;38.60;28.05;;;;;;;;;;5050876;28;20024;-75
2022/04/22 15:00:16;;;;;;;37.33;29.88;;;;;;;;;;5053568;28;20478;-73
2022/04/22 15:02:42;;;;;;;36.97;28.70;;;;;;;;;;5047204;28;20042;-72
2022/04/22 15:05:09;;;;;;;38.00;28.13;;;;;;;;;;5052835;28;20017;-73
2022/04/22 15:07:35;;;;;;;37.95;27.08;;;;;;;;;;5050256;28;20037;-74
2022/04/22 15:10:02;;;;;;;38.95;27.95;;;;;;;;;;5052353;28;20017;-74
2022/04/22 15:12:29;;;;;;;36.63;27.90;;;;;;;;;;5052685;28;20087;-74
2022/04/22 15:14:55;;;;;;;36.55;26.77;;;;;;;;;;5052396;28;20009;-73
2022/04/22 15:24:09;;;;;;;39.85;28.73;;;;;;;;;;5051767;28;20467;-73
2022/04/22 15:25:39;;;;;;;35.25;26.50;;;;;;;;;;5052265;28;20051;-71
2022/04/22 15:28:05;;;;;;;36.40;25.77;;;;;;;;;;5051602;28;20430;-72
2022/04/22 15:30:49;;;;;;;37.30;26.27;;;;;;;;;;5052072;28;20029;-72
2022/04/22 15:33:15;;;;;;;34.53;26.40;;;;;;;;;;5045033;28;20493;-71
2022/04/22 15:35:41;;;;;;;45.33;30.52;;;;;;;;;;5051834;28;20108;-73
2022/04/22 15:38:07;;;;;;;37.20;27.20;;;;;;;;;;5051077;28;20373;-73